sensor_id;sensor_type;location;lat;lon;timestamp;temperature;humidity
23271;DHT22;11804;51.118;17.058;2023-03-21T00:01:07;10.50;99.90
23271;DHT22;11804;51.118;17.058;2023-03-21T00:03:36;10.50;99.90
23271;DHT22;11804;51.118;17.058;2023-03-21T00:06:08;10.50;99.90
23271;DHT22;11804;51.118;17.058;2023-03-21T00:08:37;10.50;99.90
23271;DHT22;11804;51.118;17.058;2023-03-21T00:11:07;10.50;99.90
23271;DHT22;11804;51.118;17.058;2023-03-21T00:13:38;10.50;99.90
23271;DHT22;11804;51.118;17.058;2023-03-21T00:16:15;10.50;99.90
23271;DHT22;11804;51.118;17.058;2023-03-21T00:18:46;10.50;99.90
23271;DHT22;11804;51.118;17.058;2023-03-21T00:21:14;10.50;99.90
23271;DHT22;11804;51.118;17.058;2023-03-21T00:23:44;10.50;99.90
23271;DHT22;11804;51.118;17.058;2023-03-21T00:26:13;10.50;99.90
23271;DHT22;11804;51.118;17.058;2023-03-21T00:28:43;10.50;99.90
23271;DHT22;11804;51.118;17.058;2023-03-21T00:31:11;10.50;99.90
23271;DHT22;11804;51.118;17.058;2023-03-21T00:33:39;10.50;99.90
23271;DHT22;11804;51.118;17.058;2023-03-21T00:36:08;10.50;99.90
23271;DHT22;11804;51.118;17.058;2023-03-21T00:38:37;10.40;99.90
23271;DHT22;11804;51.118;17.058;2023-03-21T00:41:09;10.40;99.90
23271;DHT22;11804;51.118;17.058;2023-03-21T00:43:37;10.40;99.90
23271;DHT22;11804;51.118;17.058;2023-03-21T00:46:06;10.40;99.90
23271;DHT22;11804;51.118;17.058;2023-03-21T00:48:33;10.40;99.90
23271;DHT22;11804;51.118;17.058;2023-03-21T00:51:01;10.40;99.90
23271;DHT22;11804;51.118;17.058;2023-03-21T00:53:29;10.50;99.90
23271;DHT22;11804;51.118;17.058;2023-03-21T00:55:57;10.50;99.90
23271;DHT22;11804;51.118;17.058;2023-03-21T00:58:24;10.50;99.90
23271;DHT22;11804;51.118;17.058;2023-03-21T01:00:52;10.40;99.90
23271;DHT22;11804;51.118;17.058;2023-03-21T01:03:20;10.40;99.90
23271;DHT22;11804;51.118;17.058;2023-03-21T01:05:48;10.40;99.90
23271;DHT22;11804;51.118;17.058;2023-03-21T01:08:33;10.40;99.90
23271;DHT22;11804;51.118;17.058;2023-03-21T01:11:04;10.40;99.90
23271;DHT22;11804;51.118;17.058;2023-03-21T01:13:32;10.30;99.90
23271;DHT22;11804;51.118;17.058;2023-03-21T01:16:01;10.20;99.90
23271;DHT22;11804;51.118;17.058;2023-03-21T01:18:31;10.20;99.90
23271;DHT22;11804;51.118;17.058;2023-03-21T01:21:00;10.10;99.90
23271;DHT22;11804;51.118;17.058;2023-03-21T01:23:29;10.00;99.90
23271;DHT22;11804;51.118;17.058;2023-03-21T01:25:56;10.00;99.90
23271;DHT22;11804;51.118;17.058;2023-03-21T01:28:26;9.90;99.90
23271;DHT22;11804;51.118;17.058;2023-03-21T01:30:55;9.90;99.90
23271;DHT22;11804;51.118;17.058;2023-03-21T01:33:23;9.90;99.90
23271;DHT22;11804;51.118;17.058;2023-03-21T01:35:51;9.90;99.90
23271;DHT22;11804;51.118;17.058;2023-03-21T01:38:18;9.90;99.90
23271;DHT22;11804;51.118;17.058;2023-03-21T01:40:49;9.90;99.90
23271;DHT22;11804;51.118;17.058;2023-03-21T01:43:23;9.90;99.90
23271;DHT22;11804;51.118;17.058;2023-03-21T01:48:41;9.80;99.90
23271;DHT22;11804;51.118;17.058;2023-03-21T01:51:11;9.90;99.90
23271;DHT22;11804;51.118;17.058;2023-03-21T01:53:40;9.90;99.90
23271;DHT22;11804;51.118;17.058;2023-03-21T01:56:24;9.80;99.90
23271;DHT22;11804;51.118;17.058;2023-03-21T01:58:48;9.90;99.90
23271;DHT22;11804;51.118;17.058;2023-03-21T02:01:17;9.90;99.90
23271;DHT22;11804;51.118;17.058;2023-03-21T02:03:47;9.80;99.90
23271;DHT22;11804;51.118;17.058;2023-03-21T02:06:37;9.80;99.90
23271;DHT22;11804;51.118;17.058;2023-03-21T02:09:05;9.80;99.90
23271;DHT22;11804;51.118;17.058;2023-03-21T02:11:35;9.70;99.90
23271;DHT22;11804;51.118;17.058;2023-03-21T02:14:04;9.70;99.90
23271;DHT22;11804;51.118;17.058;2023-03-21T02:19:31;9.60;99.90
23271;DHT22;11804;51.118;17.058;2023-03-21T02:27:22;9.60;99.90
23271;DHT22;11804;51.118;17.058;2023-03-21T02:38:33;9.60;99.90
23271;DHT22;11804;51.118;17.058;2023-03-21T02:43:41;9.60;99.90
23271;DHT22;11804;51.118;17.058;2023-03-21T02:46:10;9.60;99.90
23271;DHT22;11804;51.118;17.058;2023-03-21T02:49:02;9.60;99.90
23271;DHT22;11804;51.118;17.058;2023-03-21T02:51:10;9.60;99.90
23271;DHT22;11804;51.118;17.058;2023-03-21T02:53:41;9.60;99.90
23271;DHT22;11804;51.118;17.058;2023-03-21T02:56:09;9.70;99.90
23271;DHT22;11804;51.118;17.058;2023-03-21T02:58:38;9.60;99.90
23271;DHT22;11804;51.118;17.058;2023-03-21T03:01:07;9.60;99.90
23271;DHT22;11804;51.118;17.058;2023-03-21T03:03:35;9.60;99.90
23271;DHT22;11804;51.118;17.058;2023-03-21T03:06:14;9.60;99.90
23271;DHT22;11804;51.118;17.058;2023-03-21T03:19:29;9.50;99.90
23271;DHT22;11804;51.118;17.058;2023-03-21T03:22:20;9.60;99.90
23271;DHT22;11804;51.118;17.058;2023-03-21T03:24:53;9.50;99.90
23271;DHT22;11804;51.118;17.058;2023-03-21T03:27:23;9.60;99.90
23271;DHT22;11804;51.118;17.058;2023-03-21T03:29:50;9.60;99.90
23271;DHT22;11804;51.118;17.058;2023-03-21T03:32:22;9.50;99.90
23271;DHT22;11804;51.118;17.058;2023-03-21T03:34:52;9.60;99.90
23271;DHT22;11804;51.118;17.058;2023-03-21T03:37:28;9.60;99.90
23271;DHT22;11804;51.118;17.058;2023-03-21T03:40:19;9.50;99.90
23271;DHT22;11804;51.118;17.058;2023-03-21T03:42:51;9.50;99.90
23271;DHT22;11804;51.118;17.058;2023-03-21T03:45:23;9.50;99.90
23271;DHT22;11804;51.118;17.058;2023-03-21T03:47:58;9.50;99.90
23271;DHT22;11804;51.118;17.058;2023-03-21T03:50:37;9.50;99.90
23271;DHT22;11804;51.118;17.058;2023-03-21T03:53:22;9.60;99.90
23271;DHT22;11804;51.118;17.058;2023-03-21T03:55:52;9.60;99.90
23271;DHT22;11804;51.118;17.058;2023-03-21T03:58:24;9.50;99.90
23271;DHT22;11804;51.118;17.058;2023-03-21T04:00:56;9.50;99.90
23271;DHT22;11804;51.118;17.058;2023-03-21T04:03:23;9.50;99.90
23271;DHT22;11804;51.118;17.058;2023-03-21T04:05:50;9.50;99.90
23271;DHT22;11804;51.118;17.058;2023-03-21T04:08:21;9.40;99.90
23271;DHT22;11804;51.118;17.058;2023-03-21T04:10:49;9.40;99.90
23271;DHT22;11804;51.118;17.058;2023-03-21T04:13:16;9.50;99.90
23271;DHT22;11804;51.118;17.058;2023-03-21T04:15:45;9.50;99.90
23271;DHT22;11804;51.118;17.058;2023-03-21T04:18:13;9.50;99.90
23271;DHT22;11804;51.118;17.058;2023-03-21T04:20:41;9.40;99.90
23271;DHT22;11804;51.118;17.058;2023-03-21T04:23:10;9.40;99.90
23271;DHT22;11804;51.118;17.058;2023-03-21T04:25:38;9.40;99.90
23271;DHT22;11804;51.118;17.058;2023-03-21T04:28:05;9.40;99.90
23271;DHT22;11804;51.118;17.058;2023-03-21T04:30:33;9.40;99.90
23271;DHT22;11804;51.118;17.058;2023-03-21T04:33:01;9.40;99.90
23271;DHT22;11804;51.118;17.058;2023-03-21T04:35:29;9.40;99.90
23271;DHT22;11804;51.118;17.058;2023-03-21T04:37:56;9.40;99.90
23271;DHT22;11804;51.118;17.058;2023-03-21T04:40:24;9.40;99.90
23271;DHT22;11804;51.118;17.058;2023-03-21T04:42:52;9.40;99.90
23271;DHT22;11804;51.118;17.058;2023-03-21T04:45:19;9.40;99.90
23271;DHT22;11804;51.118;17.058;2023-03-21T04:47:48;9.30;99.90
23271;DHT22;11804;51.118;17.058;2023-03-21T04:50:15;9.40;99.90
23271;DHT22;11804;51.118;17.058;2023-03-21T04:52:43;9.30;99.90
23271;DHT22;11804;51.118;17.058;2023-03-21T04:55:11;9.40;99.90
23271;DHT22;11804;51.118;17.058;2023-03-21T04:57:40;9.40;99.90
23271;DHT22;11804;51.118;17.058;2023-03-21T05:00:09;9.40;99.90
23271;DHT22;11804;51.118;17.058;2023-03-21T05:02:39;9.40;99.90
23271;DHT22;11804;51.118;17.058;2023-03-21T05:05:07;9.40;99.90
23271;DHT22;11804;51.118;17.058;2023-03-21T05:07:38;9.40;99.90
23271;DHT22;11804;51.118;17.058;2023-03-21T05:10:08;9.40;99.90
23271;DHT22;11804;51.118;17.058;2023-03-21T05:12:37;9.40;99.90
23271;DHT22;11804;51.118;17.058;2023-03-21T05:15:07;9.40;99.90
23271;DHT22;11804;51.118;17.058;2023-03-21T05:17:35;9.40;99.90
23271;DHT22;11804;51.118;17.058;2023-03-21T05:20:04;9.40;99.90
23271;DHT22;11804;51.118;17.058;2023-03-21T05:22:34;9.40;99.90
23271;DHT22;11804;51.118;17.058;2023-03-21T05:25:06;9.40;99.90
23271;DHT22;11804;51.118;17.058;2023-03-21T05:27:34;9.40;99.90
23271;DHT22;11804;51.118;17.058;2023-03-21T05:30:06;9.40;99.90
23271;DHT22;11804;51.118;17.058;2023-03-21T05:32:33;9.40;99.90
23271;DHT22;11804;51.118;17.058;2023-03-21T05:35:02;9.40;99.90
23271;DHT22;11804;51.118;17.058;2023-03-21T05:37:30;9.40;99.90
23271;DHT22;11804;51.118;17.058;2023-03-21T05:39:57;9.40;99.90
23271;DHT22;11804;51.118;17.058;2023-03-21T05:42:25;9.50;99.90
23271;DHT22;11804;51.118;17.058;2023-03-21T05:44:53;9.50;99.90
23271;DHT22;11804;51.118;17.058;2023-03-21T05:47:21;9.50;99.90
23271;DHT22;11804;51.118;17.058;2023-03-21T05:49:49;9.50;99.90
23271;DHT22;11804;51.118;17.058;2023-03-21T05:52:16;9.50;99.90
23271;DHT22;11804;51.118;17.058;2023-03-21T05:54:44;9.60;99.90
23271;DHT22;11804;51.118;17.058;2023-03-21T05:57:12;9.50;99.90
23271;DHT22;11804;51.118;17.058;2023-03-21T05:59:40;9.60;99.90
23271;DHT22;11804;51.118;17.058;2023-03-21T06:02:07;9.50;99.90
23271;DHT22;11804;51.118;17.058;2023-03-21T06:04:39;9.50;99.90
23271;DHT22;11804;51.118;17.058;2023-03-21T06:07:06;9.60;99.90
23271;DHT22;11804;51.118;17.058;2023-03-21T06:09:35;9.60;99.90
23271;DHT22;11804;51.118;17.058;2023-03-21T06:12:03;9.60;99.90
23271;DHT22;11804;51.118;17.058;2023-03-21T06:14:31;9.60;99.90
23271;DHT22;11804;51.118;17.058;2023-03-21T06:16:58;9.60;99.90
23271;DHT22;11804;51.118;17.058;2023-03-21T06:19:26;9.60;99.90
23271;DHT22;11804;51.118;17.058;2023-03-21T06:21:53;9.60;99.90
23271;DHT22;11804;51.118;17.058;2023-03-21T06:24:21;9.60;99.90
23271;DHT22;11804;51.118;17.058;2023-03-21T06:26:49;9.60;99.90
23271;DHT22;11804;51.118;17.058;2023-03-21T06:29:16;9.60;99.90
23271;DHT22;11804;51.118;17.058;2023-03-21T06:31:44;9.60;99.90
23271;DHT22;11804;51.118;17.058;2023-03-21T06:34:12;9.50;99.90
23271;DHT22;11804;51.118;17.058;2023-03-21T06:36:40;9.60;99.90
23271;DHT22;11804;51.118;17.058;2023-03-21T06:39:09;9.60;99.90
23271;DHT22;11804;51.118;17.058;2023-03-21T06:41:37;9.60;99.90
23271;DHT22;11804;51.118;17.058;2023-03-21T06:44:05;9.70;99.90
23271;DHT22;11804;51.118;17.058;2023-03-21T06:46:32;9.70;99.90
23271;DHT22;11804;51.118;17.058;2023-03-21T06:49:00;9.70;99.90
23271;DHT22;11804;51.118;17.058;2023-03-21T06:51:28;9.80;99.90
23271;DHT22;11804;51.118;17.058;2023-03-21T06:53:56;9.80;99.90
23271;DHT22;11804;51.118;17.058;2023-03-21T06:56:24;9.80;99.90
23271;DHT22;11804;51.118;17.058;2023-03-21T06:58:51;9.80;99.90
23271;DHT22;11804;51.118;17.058;2023-03-21T07:01:19;9.90;99.90
23271;DHT22;11804;51.118;17.058;2023-03-21T07:03:47;9.90;99.90
23271;DHT22;11804;51.118;17.058;2023-03-21T07:06:15;9.80;99.90
23271;DHT22;11804;51.118;17.058;2023-03-21T07:08:42;9.70;99.90
23271;DHT22;11804;51.118;17.058;2023-03-21T07:11:10;9.70;99.90
23271;DHT22;11804;51.118;17.058;2023-03-21T07:13:37;9.80;99.90
23271;DHT22;11804;51.118;17.058;2023-03-21T07:16:06;9.70;99.90
23271;DHT22;11804;51.118;17.058;2023-03-21T07:18:34;9.70;99.90
23271;DHT22;11804;51.118;17.058;2023-03-21T07:21:02;9.80;99.90
23271;DHT22;11804;51.118;17.058;2023-03-21T07:23:30;9.70;99.90
23271;DHT22;11804;51.118;17.058;2023-03-21T07:25:57;9.70;99.90
23271;DHT22;11804;51.118;17.058;2023-03-21T07:28:25;9.80;99.90
23271;DHT22;11804;51.118;17.058;2023-03-21T07:30:59;9.80;99.90
23271;DHT22;11804;51.118;17.058;2023-03-21T07:33:27;9.80;99.90
23271;DHT22;11804;51.118;17.058;2023-03-21T07:35:55;9.80;99.90
23271;DHT22;11804;51.118;17.058;2023-03-21T07:38:25;9.80;99.90
23271;DHT22;11804;51.118;17.058;2023-03-21T07:40:52;9.90;99.90
23271;DHT22;11804;51.118;17.058;2023-03-21T07:43:20;9.90;99.90
23271;DHT22;11804;51.118;17.058;2023-03-21T07:45:48;9.90;99.90
23271;DHT22;11804;51.118;17.058;2023-03-21T07:48:16;10.00;99.90
23271;DHT22;11804;51.118;17.058;2023-03-21T07:50:44;10.10;99.90
23271;DHT22;11804;51.118;17.058;2023-03-21T07:53:12;10.20;99.90
23271;DHT22;11804;51.118;17.058;2023-03-21T07:55:39;10.30;99.90
23271;DHT22;11804;51.118;17.058;2023-03-21T07:58:07;10.40;99.90
23271;DHT22;11804;51.118;17.058;2023-03-21T08:00:35;10.50;99.90
23271;DHT22;11804;51.118;17.058;2023-03-21T08:03:03;10.50;99.90
23271;DHT22;11804;51.118;17.058;2023-03-21T08:05:34;10.40;99.90
23271;DHT22;11804;51.118;17.058;2023-03-21T08:08:03;10.40;99.90
23271;DHT22;11804;51.118;17.058;2023-03-21T08:10:31;10.50;99.90
23271;DHT22;11804;51.118;17.058;2023-03-21T08:13:02;10.50;99.90
23271;DHT22;11804;51.118;17.058;2023-03-21T08:15:29;10.50;99.90
23271;DHT22;11804;51.118;17.058;2023-03-21T08:17:58;10.40;99.90
23271;DHT22;11804;51.118;17.058;2023-03-21T08:20:27;10.40;99.90
23271;DHT22;11804;51.118;17.058;2023-03-21T08:22:54;10.30;99.90
23271;DHT22;11804;51.118;17.058;2023-03-21T08:25:22;10.20;99.90
23271;DHT22;11804;51.118;17.058;2023-03-21T08:27:50;10.20;99.90
23271;DHT22;11804;51.118;17.058;2023-03-21T08:30:22;10.20;99.90
23271;DHT22;11804;51.118;17.058;2023-03-21T08:32:57;10.20;99.90
23271;DHT22;11804;51.118;17.058;2023-03-21T08:35:25;10.10;99.90
23271;DHT22;11804;51.118;17.058;2023-03-21T08:37:53;10.00;99.90
23271;DHT22;11804;51.118;17.058;2023-03-21T08:40:20;9.90;99.90
23271;DHT22;11804;51.118;17.058;2023-03-21T08:42:50;9.90;99.90
23271;DHT22;11804;51.118;17.058;2023-03-21T08:45:20;9.70;99.90
23271;DHT22;11804;51.118;17.058;2023-03-21T08:47:48;9.70;99.90
23271;DHT22;11804;51.118;17.058;2023-03-21T08:50:19;9.60;99.90
23271;DHT22;11804;51.118;17.058;2023-03-21T08:52:48;9.60;99.90
23271;DHT22;11804;51.118;17.058;2023-03-21T08:55:18;9.70;99.90
23271;DHT22;11804;51.118;17.058;2023-03-21T08:57:46;9.80;99.90
23271;DHT22;11804;51.118;17.058;2023-03-21T09:00:15;9.80;99.90
23271;DHT22;11804;51.118;17.058;2023-03-21T09:02:48;9.90;99.90
23271;DHT22;11804;51.118;17.058;2023-03-21T09:05:18;10.10;99.90
23271;DHT22;11804;51.118;17.058;2023-03-21T09:07:47;10.30;99.90
23271;DHT22;11804;51.118;17.058;2023-03-21T09:10:18;10.40;99.90
23271;DHT22;11804;51.118;17.058;2023-03-21T09:12:48;10.60;99.90
23271;DHT22;11804;51.118;17.058;2023-03-21T09:15:16;10.80;99.90
23271;DHT22;11804;51.118;17.058;2023-03-21T09:17:46;11.00;99.90
23271;DHT22;11804;51.118;17.058;2023-03-21T09:20:16;11.00;99.90
23271;DHT22;11804;51.118;17.058;2023-03-21T09:22:49;11.00;99.90
23271;DHT22;11804;51.118;17.058;2023-03-21T09:25:20;11.10;99.90
23271;DHT22;11804;51.118;17.058;2023-03-21T09:27:49;11.20;99.90
23271;DHT22;11804;51.118;17.058;2023-03-21T09:30:19;11.30;99.90
23271;DHT22;11804;51.118;17.058;2023-03-21T09:32:50;11.40;99.90
23271;DHT22;11804;51.118;17.058;2023-03-21T09:35:19;11.60;99.90
23271;DHT22;11804;51.118;17.058;2023-03-21T09:37:48;11.60;99.90
23271;DHT22;11804;51.118;17.058;2023-03-21T09:40:30;11.80;99.90
23271;DHT22;11804;51.118;17.058;2023-03-21T09:45:56;11.80;99.90
23271;DHT22;11804;51.118;17.058;2023-03-21T09:48:33;11.90;99.90
23271;DHT22;11804;51.118;17.058;2023-03-21T09:50:58;12.00;99.90
23271;DHT22;11804;51.118;17.058;2023-03-21T09:53:36;12.20;99.90
23271;DHT22;11804;51.118;17.058;2023-03-21T09:56:00;12.30;99.90
23271;DHT22;11804;51.118;17.058;2023-03-21T09:58:32;12.40;99.90
23271;DHT22;11804;51.118;17.058;2023-03-21T10:01:16;12.40;99.90
23271;DHT22;11804;51.118;17.058;2023-03-21T10:04:05;12.40;99.90
23271;DHT22;11804;51.118;17.058;2023-03-21T10:06:37;12.40;99.90
23271;DHT22;11804;51.118;17.058;2023-03-21T10:09:13;12.50;99.90
23271;DHT22;11804;51.118;17.058;2023-03-21T10:14:18;12.50;99.90
23271;DHT22;11804;51.118;17.058;2023-03-21T10:16:50;12.60;99.90
23271;DHT22;11804;51.118;17.058;2023-03-21T10:19:19;12.60;99.90
23271;DHT22;11804;51.118;17.058;2023-03-21T10:21:48;12.70;99.90
23271;DHT22;11804;51.118;17.058;2023-03-21T10:24:19;12.60;99.90
23271;DHT22;11804;51.118;17.058;2023-03-21T10:26:49;12.80;99.90
23271;DHT22;11804;51.118;17.058;2023-03-21T10:29:19;12.90;99.90
23271;DHT22;11804;51.118;17.058;2023-03-21T10:31:49;12.90;99.90
23271;DHT22;11804;51.118;17.058;2023-03-21T10:34:41;13.10;99.90
23271;DHT22;11804;51.118;17.058;2023-03-21T10:37:13;13.40;99.90
23271;DHT22;11804;51.118;17.058;2023-03-21T10:39:48;14.10;99.90
23271;DHT22;11804;51.118;17.058;2023-03-21T10:42:21;14.50;99.90
23271;DHT22;11804;51.118;17.058;2023-03-21T10:44:52;14.80;95.30
23271;DHT22;11804;51.118;17.058;2023-03-21T10:47:23;15.00;91.70
23271;DHT22;11804;51.118;17.058;2023-03-21T10:49:50;14.80;91.90
23271;DHT22;11804;51.118;17.058;2023-03-21T10:52:21;14.40;92.00
23271;DHT22;11804;51.118;17.058;2023-03-21T10:55:02;14.30;93.10
23271;DHT22;11804;51.118;17.058;2023-03-21T10:57:22;14.10;92.00
23271;DHT22;11804;51.118;17.058;2023-03-21T10:59:57;14.00;93.40
23271;DHT22;11804;51.118;17.058;2023-03-21T11:02:29;13.80;94.40
23271;DHT22;11804;51.118;17.058;2023-03-21T11:04:56;13.90;94.90
23271;DHT22;11804;51.118;17.058;2023-03-21T11:07:27;13.70;94.70
23271;DHT22;11804;51.118;17.058;2023-03-21T11:09:59;13.60;93.40
23271;DHT22;11804;51.118;17.058;2023-03-21T11:12:38;13.70;94.20
23271;DHT22;11804;51.118;17.058;2023-03-21T11:18:20;13.60;94.40
23271;DHT22;11804;51.118;17.058;2023-03-21T11:20:50;13.40;96.40
23271;DHT22;11804;51.118;17.058;2023-03-21T11:23:19;13.30;96.50
23271;DHT22;11804;51.118;17.058;2023-03-21T11:25:49;13.00;97.30
23271;DHT22;11804;51.118;17.058;2023-03-21T11:30:55;13.00;98.50
23271;DHT22;11804;51.118;17.058;2023-03-21T11:33:25;12.80;99.50
23271;DHT22;11804;51.118;17.058;2023-03-21T11:38:56;12.90;99.30
23271;DHT22;11804;51.118;17.058;2023-03-21T11:41:33;12.80;97.40
23271;DHT22;11804;51.118;17.058;2023-03-21T11:44:02;12.80;98.60
23271;DHT22;11804;51.118;17.058;2023-03-21T11:46:31;12.80;97.30
23271;DHT22;11804;51.118;17.058;2023-03-21T11:48:59;12.80;99.30
23271;DHT22;11804;51.118;17.058;2023-03-21T11:51:48;12.70;98.00
23271;DHT22;11804;51.118;17.058;2023-03-21T11:54:18;12.60;97.60
23271;DHT22;11804;51.118;17.058;2023-03-21T11:56:52;12.80;98.30
23271;DHT22;11804;51.118;17.058;2023-03-21T11:59:36;12.70;97.30
23271;DHT22;11804;51.118;17.058;2023-03-21T12:02:18;12.80;97.50
23271;DHT22;11804;51.118;17.058;2023-03-21T12:04:54;12.80;95.70
23271;DHT22;11804;51.118;17.058;2023-03-21T12:10:30;12.80;95.80
23271;DHT22;11804;51.118;17.058;2023-03-21T12:16:18;13.10;95.30
23271;DHT22;11804;51.118;17.058;2023-03-21T12:24:24;12.70;96.50
23271;DHT22;11804;51.118;17.058;2023-03-21T12:35:20;13.20;95.50
23271;DHT22;11804;51.118;17.058;2023-03-21T12:38:15;13.20;94.80
23271;DHT22;11804;51.118;17.058;2023-03-21T12:45:46;13.30;94.30
23271;DHT22;11804;51.118;17.058;2023-03-21T12:50:53;13.40;94.70
23271;DHT22;11804;51.118;17.058;2023-03-21T12:56:23;13.30;93.30
23271;DHT22;11804;51.118;17.058;2023-03-21T12:58:54;13.20;93.60
23271;DHT22;11804;51.118;17.058;2023-03-21T13:01:20;13.40;92.00
23271;DHT22;11804;51.118;17.058;2023-03-21T13:04:06;13.40;92.80
23271;DHT22;11804;51.118;17.058;2023-03-21T13:06:36;13.50;92.10
23271;DHT22;11804;51.118;17.058;2023-03-21T13:09:13;13.50;92.30
23271;DHT22;11804;51.118;17.058;2023-03-21T13:11:42;13.60;92.50
23271;DHT22;11804;51.118;17.058;2023-03-21T13:14:27;13.70;92.40
23271;DHT22;11804;51.118;17.058;2023-03-21T13:17:00;13.70;90.70
23271;DHT22;11804;51.118;17.058;2023-03-21T13:19:34;13.70;90.60
23271;DHT22;11804;51.118;17.058;2023-03-21T13:24:39;13.60;91.20
23271;DHT22;11804;51.118;17.058;2023-03-21T13:29:52;13.60;91.00
23271;DHT22;11804;51.118;17.058;2023-03-21T13:32:27;13.60;90.70
23271;DHT22;11804;51.118;17.058;2023-03-21T13:34:58;13.50;91.00
23271;DHT22;11804;51.118;17.058;2023-03-21T13:37:34;13.60;91.00
23271;DHT22;11804;51.118;17.058;2023-03-21T13:40:11;13.60;90.30
23271;DHT22;11804;51.118;17.058;2023-03-21T13:42:43;13.60;90.30
23271;DHT22;11804;51.118;17.058;2023-03-21T13:45:21;13.60;89.80
23271;DHT22;11804;51.118;17.058;2023-03-21T13:47:54;13.60;90.40
23271;DHT22;11804;51.118;17.058;2023-03-21T13:50:24;13.80;90.00
23271;DHT22;11804;51.118;17.058;2023-03-21T13:53:10;13.90;88.60
23271;DHT22;11804;51.118;17.058;2023-03-21T13:55:44;14.00;87.00
23271;DHT22;11804;51.118;17.058;2023-03-21T13:58:32;13.80;87.20
23271;DHT22;11804;51.118;17.058;2023-03-21T14:01:32;13.80;88.40
23271;DHT22;11804;51.118;17.058;2023-03-21T14:04:08;13.60;89.10
23271;DHT22;11804;51.118;17.058;2023-03-21T14:06:44;13.60;89.10
23271;DHT22;11804;51.118;17.058;2023-03-21T14:09:11;13.70;88.10
23271;DHT22;11804;51.118;17.058;2023-03-21T14:11:38;13.70;89.00
23271;DHT22;11804;51.118;17.058;2023-03-21T14:14:07;13.80;88.10
23271;DHT22;11804;51.118;17.058;2023-03-21T14:16:35;13.70;88.80
23271;DHT22;11804;51.118;17.058;2023-03-21T14:19:05;13.60;88.40
23271;DHT22;11804;51.118;17.058;2023-03-21T14:21:34;13.60;88.50
23271;DHT22;11804;51.118;17.058;2023-03-21T14:24:10;13.50;87.70
23271;DHT22;11804;51.118;17.058;2023-03-21T14:26:49;13.50;89.00
23271;DHT22;11804;51.118;17.058;2023-03-21T14:29:29;13.40;89.50
23271;DHT22;11804;51.118;17.058;2023-03-21T14:31:56;13.30;89.90
23271;DHT22;11804;51.118;17.058;2023-03-21T14:34:31;13.30;90.30
23271;DHT22;11804;51.118;17.058;2023-03-21T14:36:59;13.20;90.30
23271;DHT22;11804;51.118;17.058;2023-03-21T14:39:29;13.20;91.10
23271;DHT22;11804;51.118;17.058;2023-03-21T14:42:10;13.20;91.00
23271;DHT22;11804;51.118;17.058;2023-03-21T14:44:47;13.10;91.50
23271;DHT22;11804;51.118;17.058;2023-03-21T14:47:19;13.00;91.90
23271;DHT22;11804;51.118;17.058;2023-03-21T14:49:48;13.10;92.00
23271;DHT22;11804;51.118;17.058;2023-03-21T14:52:22;13.10;92.00
23271;DHT22;11804;51.118;17.058;2023-03-21T14:54:50;13.10;91.10
23271;DHT22;11804;51.118;17.058;2023-03-21T14:57:22;13.10;91.70
23271;DHT22;11804;51.118;17.058;2023-03-21T14:59:52;13.10;91.60
23271;DHT22;11804;51.118;17.058;2023-03-21T15:02:24;13.10;91.60
23271;DHT22;11804;51.118;17.058;2023-03-21T15:04:54;13.00;91.60
23271;DHT22;11804;51.118;17.058;2023-03-21T15:07:26;13.00;91.30
23271;DHT22;11804;51.118;17.058;2023-03-21T15:09:56;12.90;92.20
23271;DHT22;11804;51.118;17.058;2023-03-21T15:12:26;12.90;92.10
23271;DHT22;11804;51.118;17.058;2023-03-21T15:14:54;12.90;92.10
23271;DHT22;11804;51.118;17.058;2023-03-21T15:17:23;12.90;93.00
23271;DHT22;11804;51.118;17.058;2023-03-21T15:19:51;12.90;93.40
23271;DHT22;11804;51.118;17.058;2023-03-21T15:22:38;12.90;93.40
23271;DHT22;11804;51.118;17.058;2023-03-21T15:25:11;12.80;93.20
23271;DHT22;11804;51.118;17.058;2023-03-21T15:27:40;12.80;94.00
23271;DHT22;11804;51.118;17.058;2023-03-21T15:30:23;12.70;93.60
23271;DHT22;11804;51.118;17.058;2023-03-21T15:32:48;12.70;93.70
23271;DHT22;11804;51.118;17.058;2023-03-21T15:35:24;12.70;94.60
23271;DHT22;11804;51.118;17.058;2023-03-21T15:37:55;12.70;95.10
23271;DHT22;11804;51.118;17.058;2023-03-21T15:40:28;12.60;95.20
23271;DHT22;11804;51.118;17.058;2023-03-21T15:43:14;12.60;94.70
23271;DHT22;11804;51.118;17.058;2023-03-21T15:45:52;12.70;95.10
23271;DHT22;11804;51.118;17.058;2023-03-21T15:48:20;12.60;94.20
23271;DHT22;11804;51.118;17.058;2023-03-21T15:50:51;12.60;94.40
23271;DHT22;11804;51.118;17.058;2023-03-21T15:53:19;12.50;94.50
23271;DHT22;11804;51.118;17.058;2023-03-21T15:55:55;12.50;95.00
23271;DHT22;11804;51.118;17.058;2023-03-21T15:58:24;12.50;95.80
23271;DHT22;11804;51.118;17.058;2023-03-21T16:00:56;12.50;96.30
23271;DHT22;11804;51.118;17.058;2023-03-21T16:03:27;12.50;97.10
23271;DHT22;11804;51.118;17.058;2023-03-21T16:08:36;12.40;97.70
23271;DHT22;11804;51.118;17.058;2023-03-21T16:11:11;12.30;97.80
23271;DHT22;11804;51.118;17.058;2023-03-21T16:13:39;12.30;98.70
23271;DHT22;11804;51.118;17.058;2023-03-21T16:16:18;12.20;99.10
23271;DHT22;11804;51.118;17.058;2023-03-21T16:18:41;12.20;98.50
23271;DHT22;11804;51.118;17.058;2023-03-21T16:21:13;12.20;98.40
23271;DHT22;11804;51.118;17.058;2023-03-21T16:23:43;12.10;99.10
23271;DHT22;11804;51.118;17.058;2023-03-21T16:26:14;12.10;99.10
23271;DHT22;11804;51.118;17.058;2023-03-21T16:28:43;12.10;99.70
23271;DHT22;11804;51.118;17.058;2023-03-21T16:31:16;12.10;99.90
23271;DHT22;11804;51.118;17.058;2023-03-21T16:33:44;12.10;99.90
23271;DHT22;11804;51.118;17.058;2023-03-21T16:36:15;12.10;99.90
23271;DHT22;11804;51.118;17.058;2023-03-21T16:38:46;12.00;99.90
23271;DHT22;11804;51.118;17.058;2023-03-21T16:41:15;12.00;99.90
23271;DHT22;11804;51.118;17.058;2023-03-21T16:43:43;12.10;99.90
23271;DHT22;11804;51.118;17.058;2023-03-21T16:46:16;12.10;99.90
23271;DHT22;11804;51.118;17.058;2023-03-21T16:48:47;12.00;99.90
23271;DHT22;11804;51.118;17.058;2023-03-21T16:51:17;12.00;99.90
23271;DHT22;11804;51.118;17.058;2023-03-21T16:53:51;12.00;99.90
23271;DHT22;11804;51.118;17.058;2023-03-21T16:56:25;12.00;99.90
23271;DHT22;11804;51.118;17.058;2023-03-21T16:58:53;11.90;99.90
23271;DHT22;11804;51.118;17.058;2023-03-21T17:01:22;11.90;99.90
23271;DHT22;11804;51.118;17.058;2023-03-21T17:03:53;11.90;99.90
23271;DHT22;11804;51.118;17.058;2023-03-21T17:06:23;11.90;99.90
23271;DHT22;11804;51.118;17.058;2023-03-21T17:08:53;11.80;99.90
23271;DHT22;11804;51.118;17.058;2023-03-21T17:11:23;11.80;99.90